Time;durP1;ratioP1;P1;durP2;ratioP2;P2;SDS_P1;SDS_P2;PMS_P1;PMS_P2;Temp;Humidity;BMP_temperature;BMP_pressure;BME280_temperature;BME280_humidity;BME280_pressure;Samples;Min_cycle;Max_cycle;Signal;HPM_P1;HPM_P2
2022/08/05 00:00:25;;;;;;;13.30;2.70;;;20.80;68.20;;;;;;9181972;19;20902;-68
2022/08/05 00:03:32;;;;;;;5.93;2.65;;;20.80;68.20;;;;;;9182467;19;20475;-68
2022/08/05 00:06:38;;;;;;;6.68;2.63;;;20.70;68.20;;;;;;9177428;19;20006;-68
2022/08/05 00:09:43;;;;;;;10.27;2.45;;;20.60;68.20;;;;;;9177406;19;20014;-69
2022/08/05 00:12:48;;;;;;;8.20;2.83;;;20.60;68.40;;;;;;9180045;19;20010;-68
2022/08/05 00:16:04;;;;;;;7.45;2.80;;;20.50;68.50;;;;;;9181618;19;20021;-69
2022/08/05 00:19:12;;;;;;;4.10;2.47;;;20.50;68.80;;;;;;9181629;19;20018;-69
2022/08/05 00:22:17;;;;;;;9.10;3.63;;;20.40;68.70;;;;;;9179184;19;20010;-67
2022/08/05 00:25:23;;;;;;;13.07;3.67;;;20.40;69.00;;;;;;9179545;19;20030;-69
2022/08/05 00:28:28;;;;;;;7.95;3.60;;;20.40;69.10;;;;;;9178383;19;20494;-69
2022/08/05 00:31:39;;;;;;;8.63;3.55;;;20.40;69.30;;;;;;9177312;19;20048;-68
2022/08/05 00:34:58;;;;;;;5.88;3.10;;;20.30;69.60;;;;;;9178669;19;20026;-69
2022/08/05 00:38:11;;;;;;;8.88;3.33;;;20.30;69.50;;;;;;9180224;19;20029;-68
2022/08/05 00:41:29;;;;;;;13.68;3.47;;;20.30;69.70;;;;;;9178493;19;20025;-68
2022/08/05 00:44:54;;;;;;;6.95;3.03;;;20.30;70.10;;;;;;9179255;19;20564;-67
2022/08/05 00:48:02;;;;;;;7.88;2.85;;;20.30;69.90;;;;;;9178292;19;20066;-68
2022/08/05 00:51:09;;;;;;;9.00;3.42;;;20.30;70.10;;;;;;9178439;19;20015;-68
2022/08/05 00:54:34;;;;;;;8.88;3.35;;;20.30;70.10;;;;;;9177956;19;20022;-68
2022/08/05 00:57:40;;;;;;;7.18;3.72;;;20.30;70.10;;;;;;9177834;19;20010;-69
2022/08/05 01:01:03;;;;;;;10.38;3.55;;;20.30;70.30;;;;;;9180313;19;20018;-70
2022/08/05 01:04:15;;;;;;;7.75;4.05;;;20.30;70.40;;;;;;9179983;19;20015;-69
2022/08/05 01:07:30;;;;;;;6.82;3.45;;;20.20;70.50;;;;;;9177372;19;20014;-68
2022/08/05 01:10:42;;;;;;;7.75;4.05;;;20.20;70.50;;;;;;9171876;19;20483;-69
2022/08/05 01:14:05;;;;;;;8.02;3.55;;;20.20;70.80;;;;;;9177019;19;20018;-68
2022/08/05 01:17:16;;;;;;;7.85;3.50;;;20.20;71.00;;;;;;9178942;19;20010;-68
2022/08/05 01:20:37;;;;;;;9.05;3.90;;;20.20;70.80;;;;;;9177702;19;20574;-69
2022/08/05 01:24:10;;;;;;;6.32;3.70;;;20.20;71.10;;;;;;9176520;19;20014;-68
2022/08/05 01:27:33;;;;;;;12.02;4.25;;;20.20;71.20;;;;;;9177572;19;20048;-68
2022/08/05 01:31:02;;;;;;;10.00;3.65;;;20.10;71.20;;;;;;9176666;19;20010;-68
2022/08/05 01:34:13;;;;;;;9.70;4.20;;;20.20;71.20;;;;;;9177333;19;20749;-69
2022/08/05 01:37:21;;;;;;;8.13;3.83;;;20.10;71.30;;;;;;9178268;19;20010;-69
2022/08/05 01:40:31;;;;;;;7.63;3.50;;;20.10;71.30;;;;;;9175950;19;20014;-68
2022/08/05 01:43:38;;;;;;;11.20;3.97;;;20.10;71.30;;;;;;9184122;19;20590;-68
2022/08/05 01:46:47;;;;;;;6.78;3.35;;;20.10;71.40;;;;;;9186347;19;20758;-68
2022/08/05 01:49:57;;;;;;;10.98;4.75;;;20.10;71.50;;;;;;9184095;19;20061;-68
2022/08/05 01:53:09;;;;;;;18.67;5.38;;;20.10;71.50;;;;;;9187197;19;20030;-68
2022/08/05 01:56:17;;;;;;;12.82;4.80;;;20.10;71.60;;;;;;9186532;19;20018;-69
2022/08/05 01:59:45;;;;;;;7.43;3.88;;;20.10;71.70;;;;;;9184448;19;20015;-68
2022/08/05 02:02:57;;;;;;;12.38;4.18;;;20.10;71.80;;;;;;9186912;19;20030;-69
2022/08/05 02:06:04;;;;;;;12.65;4.35;;;20.10;72.00;;;;;;9181622;19;20015;-68
2022/08/05 02:09:30;;;;;;;10.35;4.55;;;20.10;71.90;;;;;;9181604;19;20022;-69
2022/08/05 02:12:44;;;;;;;8.43;4.93;;;20.10;72.00;;;;;;9185929;19;20025;-68
2022/08/05 02:16:02;;;;;;;8.57;4.82;;;20.10;72.20;;;;;;9184112;19;20122;-67
2022/08/05 02:19:14;;;;;;;9.65;4.40;;;20.00;72.10;;;;;;9184238;19;20472;-67
2022/08/05 02:22:24;;;;;;;11.75;5.50;;;20.00;73.00;;;;;;9186070;19;20352;-67
2022/08/05 02:25:38;;;;;;;8.82;5.32;;;20.00;72.30;;;;;;9185336;19;20006;-67
2022/08/05 02:28:56;;;;;;;9.05;4.85;;;20.00;72.60;;;;;;9185670;19;20472;-68
2022/08/05 02:32:02;;;;;;;11.30;5.00;;;20.00;72.40;;;;;;9181802;19;20398;-67
2022/08/05 02:35:15;;;;;;;12.82;4.57;;;20.00;72.50;;;;;;9185176;19;20017;-67
2022/08/05 02:38:32;;;;;;;10.55;4.43;;;20.00;72.80;;;;;;9183661;19;20022;-67
2022/08/05 02:41:40;;;;;;;14.82;4.53;;;20.00;72.70;;;;;;9183353;19;20023;-67
2022/08/05 02:45:06;;;;;;;14.90;5.15;;;20.00;72.80;;;;;;9183435;19;20029;-67
2022/08/05 02:48:12;;;;;;;10.82;4.88;;;20.00;72.80;;;;;;9184413;19;20015;-67
2022/08/05 02:51:20;;;;;;;8.23;4.30;;;20.00;72.90;;;;;;9181346;19;20013;-67
2022/08/05 02:54:46;;;;;;;13.23;4.90;;;20.00;73.00;;;;;;9180562;19;20018;-67
2022/08/05 02:57:57;;;;;;;9.27;4.97;;;20.00;73.00;;;;;;9183611;19;20037;-68
2022/08/05 03:01:26;;;;;;;12.20;5.13;;;20.00;73.10;;;;;;9184373;19;20834;-67
2022/08/05 03:04:32;;;;;;;14.85;5.38;;;20.00;73.20;;;;;;9181401;19;20025;-67
2022/08/05 03:07:41;;;;;;;10.55;4.82;;;20.00;73.10;;;;;;9183685;19;20425;-67
2022/08/05 03:11:06;;;;;;;9.15;4.78;;;20.00;73.30;;;;;;9177870;19;20373;-67
2022/08/05 03:14:31;;;;;;;7.85;4.72;;;20.00;73.20;;;;;;9184014;19;20025;-67
2022/08/05 03:17:36;;;;;;;14.05;5.63;;;20.00;73.20;;;;;;9181345;19;20490;-68
2022/08/05 03:20:46;;;;;;;11.95;5.43;;;20.00;73.30;;;;;;9180828;19;20022;-68
2022/08/05 03:23:56;;;;;;;11.00;5.22;;;20.00;73.30;;;;;;9181485;19;20476;-67
2022/08/05 03:27:02;;;;;;;15.65;5.95;;;20.00;73.50;;;;;;9180860;19;20015;-67
2022/08/05 03:30:12;;;;;;;17.45;5.47;;;20.00;73.50;;;;;;9182437;19;20025;-67
2022/08/05 03:33:19;;;;;;;13.82;5.20;;;20.00;73.60;;;;;;9180544;19;20044;-67
2022/08/05 03:36:26;;;;;;;9.65;5.65;;;19.90;73.50;;;;;;9183274;19;20480;-68
2022/08/05 03:39:37;;;;;;;13.07;6.03;;;20.00;73.70;;;;;;9182005;19;20010;-68
2022/08/05 03:43:02;;;;;;;14.50;6.35;;;19.90;73.70;;;;;;9182123;19;20471;-67
2022/08/05 03:46:27;;;;;;;10.27;5.80;;;20.00;73.70;;;;;;9180186;19;20661;-67
2022/08/05 03:49:36;;;;;;;16.50;6.03;;;19.90;73.70;;;;;;9182764;19;20018;-67
2022/08/05 03:53:10;;;;;;;10.90;6.13;;;19.90;73.90;;;;;;9181413;19;20089;-67
2022/08/05 03:56:41;;;;;;;9.20;5.53;;;19.90;74.00;;;;;;9180565;19;20118;-68
2022/08/05 03:59:52;;;;;;;11.93;6.00;;;19.90;74.00;;;;;;9179491;19;20010;-68
2022/08/05 04:03:02;;;;;;;12.05;6.03;;;19.90;74.00;;;;;;9180215;19;20026;-67
2022/08/05 04:06:09;;;;;;;12.20;5.88;;;19.90;74.00;;;;;;9179134;19;20021;-68
2022/08/05 04:09:14;;;;;;;10.57;6.00;;;19.90;74.10;;;;;;9178091;19;20511;-67
2022/08/05 04:12:33;;;;;;;9.88;6.20;;;19.80;74.10;;;;;;9178422;19;20022;-67
2022/08/05 04:15:38;;;;;;;12.38;6.03;;;19.80;74.20;;;;;;9181308;19;20022;-67
2022/08/05 04:19:03;;;;;;;12.85;6.00;;;19.90;74.30;;;;;;9178861;19;20022;-67
2022/08/05 04:22:17;;;;;;;12.15;6.28;;;19.90;74.30;;;;;;9181021;19;20018;-67
2022/08/05 04:25:25;;;;;;;11.55;6.00;;;19.90;74.30;;;;;;9178898;19;20022;-66
2022/08/05 04:28:52;;;;;;;16.40;6.82;;;19.90;74.40;;;;;;9179047;19;20502;-67
2022/08/05 04:31:57;;;;;;;14.00;6.70;;;19.80;74.50;;;;;;9178827;19;20010;-70
2022/08/05 04:35:04;;;;;;;14.38;6.53;;;19.80;74.40;;;;;;9179094;19;20524;-67
2022/08/05 04:38:09;;;;;;;12.65;6.93;;;19.80;74.50;;;;;;9178542;19;20111;-67
2022/08/05 04:41:19;;;;;;;15.27;7.30;;;19.80;74.60;;;;;;9180057;19;20011;-67
2022/08/05 04:44:40;;;;;;;13.07;7.13;;;19.80;74.60;;;;;;9178367;19;20430;-68
2022/08/05 04:47:45;;;;;;;14.80;7.30;;;19.80;74.80;;;;;;9179474;19;20011;-67
2022/08/05 04:50:51;;;;;;;13.57;7.18;;;19.80;74.80;;;;;;9178615;19;20502;-67
2022/08/05 04:54:15;;;;;;;16.55;7.57;;;19.80;74.90;;;;;;9177667;19;20010;-67
2022/08/05 04:57:21;;;;;;;12.65;7.57;;;19.80;74.90;;;;;;9177328;19;20049;-67
2022/08/05 05:00:35;;;;;;;23.63;7.75;;;19.70;74.90;;;;;;9179143;19;20014;-67
2022/08/05 05:03:40;;;;;;;11.98;6.78;;;19.80;75.10;;;;;;9177162;19;20054;-68
2022/08/05 05:06:46;;;;;;;14.60;7.53;;;19.80;75.10;;;;;;9177333;19;20062;-68
2022/08/05 05:09:55;;;;;;;14.18;7.82;;;19.80;75.20;;;;;;9174946;19;20015;-67
2022/08/05 05:13:00;;;;;;;14.43;7.45;;;19.80;75.20;;;;;;9176908;19;20010;-67
2022/08/05 05:16:11;;;;;;;18.25;7.30;;;19.80;75.20;;;;;;9177505;19;20757;-67
2022/08/05 05:19:19;;;;;;;17.10;7.75;;;19.70;75.30;;;;;;9182755;19;20117;-67
2022/08/05 05:22:31;;;;;;;16.65;7.35;;;19.80;75.30;;;;;;9184575;19;20098;-68
2022/08/05 05:25:36;;;;;;;14.25;7.20;;;19.80;75.40;;;;;;9185734;19;20038;-67
2022/08/05 05:28:45;;;;;;;13.23;7.32;;;19.80;75.50;;;;;;9182802;19;20014;-67
2022/08/05 05:31:52;;;;;;;16.10;7.60;;;19.70;75.40;;;;;;9184065;19;20460;-67
2022/08/05 05:34:58;;;;;;;15.63;7.40;;;19.80;75.70;;;;;;9184744;19;20491;-67
2022/08/05 05:38:05;;;;;;;12.90;7.07;;;19.80;75.60;;;;;;9184634;19;20578;-67
2022/08/05 05:41:13;;;;;;;18.35;7.35;;;19.80;75.60;;;;;;9186662;19;20330;-67
2022/08/05 05:44:22;;;;;;;14.30;7.07;;;19.80;75.60;;;;;;9188366;19;20038;-67
2022/08/05 05:47:47;;;;;;;14.40;7.68;;;19.80;75.70;;;;;;9184482;19;20032;-66
2022/08/05 05:51:11;;;;;;;14.25;7.38;;;19.80;75.70;;;;;;9187650;19;20014;-67
2022/08/05 05:54:20;;;;;;;14.77;8.35;;;19.80;75.60;;;;;;9185557;19;20376;-67
2022/08/05 05:57:24;;;;;;;16.05;7.63;;;19.80;75.70;;;;;;9187225;19;20010;-67
2022/08/05 06:00:46;;;;;;;12.85;7.95;;;19.80;75.70;;;;;;9185888;19;20022;-67
2022/08/05 06:03:55;;;;;;;18.58;7.85;;;19.80;75.80;;;;;;9186698;19;20010;-67
2022/08/05 06:07:07;;;;;;;17.27;7.60;;;19.80;75.90;;;;;;9186558;19;20041;-68
2022/08/05 06:10:14;;;;;;;13.52;7.85;;;19.80;75.80;;;;;;9179788;19;20014;-67
2022/08/05 06:13:22;;;;;;;11.88;7.75;;;19.80;75.90;;;;;;9184421;19;20010;-68
2022/08/05 06:16:27;;;;;;;14.43;7.75;;;19.80;75.90;;;;;;9185344;19;20026;-67
2022/08/05 06:19:43;;;;;;;21.90;8.17;;;19.80;75.90;;;;;;9186242;19;20519;-68
2022/08/05 06:23:01;;;;;;;16.80;8.07;;;19.80;76.00;;;;;;9184810;19;20054;-67
2022/08/05 06:26:08;;;;;;;16.73;8.10;;;19.80;75.90;;;;;;9185054;19;20007;-68
2022/08/05 06:29:25;;;;;;;17.08;8.07;;;19.80;76.10;;;;;;9181611;19;20014;-68
2022/08/05 06:32:50;;;;;;;13.80;7.68;;;19.80;76.00;;;;;;9183705;19;20018;-68
2022/08/05 06:35:58;;;;;;;11.82;7.47;;;19.80;76.00;;;;;;9186605;19;20026;-68
2022/08/05 06:39:13;;;;;;;19.67;7.95;;;19.80;76.20;;;;;;9183769;19;20015;-68
2022/08/05 06:42:18;;;;;;;14.25;7.68;;;19.90;76.10;;;;;;9184307;19;20026;-67
2022/08/05 06:45:24;;;;;;;19.02;7.80;;;19.90;76.20;;;;;;9186390;19;20780;-67
2022/08/05 06:48:49;;;;;;;15.48;7.82;;;19.90;76.20;;;;;;9186149;19;20019;-67
2022/08/05 06:52:06;;;;;;;18.38;8.02;;;19.90;76.20;;;;;;9182520;19;20642;-68
2022/08/05 06:55:11;;;;;;;12.40;7.70;;;19.90;76.30;;;;;;9185149;19;20014;-67
2022/08/05 06:58:18;;;;;;;20.52;8.45;;;19.90;76.30;;;;;;9183329;19;20022;-68
2022/08/05 07:01:40;;;;;;;15.10;8.18;;;19.90;76.30;;;;;;9185193;19;20116;-67
2022/08/05 07:04:46;;;;;;;20.88;7.72;;;19.90;76.30;;;;;;9182065;19;20100;-67
2022/08/05 07:07:54;;;;;;;19.08;8.05;;;19.90;76.40;;;;;;9181908;19;20022;-67
2022/08/05 07:10:59;;;;;;;17.98;7.63;;;19.90;76.50;;;;;;9180196;19;20048;-67
2022/08/05 07:17:32;;;;;;;19.25;7.90;;;19.90;76.50;;;;;;9182840;19;20027;-67
2022/08/05 07:20:57;;;;;;;13.27;7.80;;;19.90;76.60;;;;;;9182813;19;20014;-67
2022/08/05 07:24:12;;;;;;;14.43;8.18;;;20.00;76.70;;;;;;9184329;19;20021;-67
2022/08/05 07:27:17;;;;;;;10.82;7.32;;;20.00;76.80;;;;;;9183731;19;20010;-68
2022/08/05 07:30:22;;;;;;;12.77;7.38;;;20.00;76.80;;;;;;9182890;19;20092;-67
2022/08/05 07:33:34;;;;;;;14.60;7.13;;;20.00;76.80;;;;;;9180244;19;20025;-68
2022/08/05 07:36:45;;;;;;;10.82;6.80;;;20.00;76.80;;;;;;9182859;19;20048;-68
2022/08/05 07:39:57;;;;;;;12.43;7.35;;;20.10;77.00;;;;;;9182177;19;20013;-68
2022/08/05 07:43:25;;;;;;;10.38;5.97;;;20.10;76.90;;;;;;9183289;19;20090;-66
2022/08/05 07:46:33;;;;;;;16.58;6.53;;;20.10;76.90;;;;;;9181045;19;20010;-67
2022/08/05 07:49:38;;;;;;;7.43;5.45;;;20.10;76.90;;;;;;9183167;19;20540;-68
2022/08/05 07:52:58;;;;;;;14.02;6.43;;;20.20;76.90;;;;;;9180821;19;20017;-67
2022/08/05 07:56:08;;;;;;;10.68;5.63;;;20.20;76.80;;;;;;9181898;19;20010;-67
2022/08/05 07:59:33;;;;;;;20.42;6.60;;;20.20;76.90;;;;;;9183144;19;20355;-67
2022/08/05 08:02:45;;;;;;;12.82;6.00;;;20.30;76.80;;;;;;9181430;19;20022;-67
2022/08/05 08:06:10;;;;;;;13.50;5.80;;;20.30;76.70;;;;;;9179334;19;20026;-67
2022/08/05 08:09:17;;;;;;;11.05;5.38;;;20.30;76.70;;;;;;9177249;19;20011;-67
2022/08/05 08:12:29;;;;;;;10.20;5.07;;;20.40;76.70;;;;;;9179082;19;20013;-67
2022/08/05 08:15:55;;;;;;;13.27;4.95;;;20.40;76.70;;;;;;9181866;19;20030;-68
2022/08/05 08:19:21;;;;;;;14.32;5.30;;;20.50;76.60;;;;;;9179828;19;20023;-69
2022/08/05 08:22:51;;;;;;;10.63;4.88;;;20.50;76.50;;;;;;9179764;19;20029;-67
2022/08/05 08:25:56;;;;;;;11.93;5.32;;;20.50;76.40;;;;;;9181281;19;20487;-67
2022/08/05 08:29:07;;;;;;;10.95;5.03;;;20.60;76.40;;;;;;9180521;19;20486;-67
2022/08/05 08:32:37;;;;;;;10.07;4.90;;;20.60;76.40;;;;;;9182196;19;20025;-69
2022/08/05 08:35:45;;;;;;;9.95;4.32;;;20.60;76.20;;;;;;9180026;19;20017;-68
2022/08/05 08:39:10;;;;;;;11.90;4.28;;;20.70;76.20;;;;;;9179698;19;20018;-68
2022/08/05 08:42:20;;;;;;;10.00;4.72;;;20.60;76.10;;;;;;9178728;19;20585;-67
2022/08/05 08:45:46;;;;;;;16.67;4.75;;;20.70;76.20;;;;;;9180196;19;20022;-68
2022/08/05 08:48:58;;;;;;;6.93;4.10;;;20.80;76.20;;;;;;9181247;19;20484;-67
2022/08/05 08:52:26;;;;;;;9.52;4.10;;;20.80;76.20;;;;;;9183856;19;20014;-68
2022/08/05 08:55:32;;;;;;;11.50;4.07;;;20.90;76.10;;;;;;9188599;19;20018;-67
2022/08/05 08:59:00;;;;;;;12.20;4.88;;;20.90;76.00;;;;;;9186645;19;20122;-67
2022/08/05 09:02:17;;;;;;;10.13;4.30;;;21.00;75.90;;;;;;9190671;19;20019;-68
2022/08/05 09:05:24;;;;;;;11.50;3.88;;;21.00;75.80;;;;;;9186029;19;20014;-68
2022/08/05 09:08:52;;;;;;;11.82;3.80;;;21.00;75.60;;;;;;9189911;19;20015;-68
2022/08/05 09:11:57;;;;;;;10.10;3.47;;;21.10;75.60;;;;;;9184408;19;20018;-67
2022/08/05 09:15:19;;;;;;;7.28;3.20;;;21.10;75.50;;;;;;9186558;19;20479;-69
2022/08/05 09:18:30;;;;;;;8.60;2.95;;;21.20;75.50;;;;;;9187213;19;20010;-68
2022/08/05 09:21:35;;;;;;;6.43;3.30;;;21.20;75.40;;;;;;9188978;19;20019;-68
2022/08/05 09:25:00;;;;;;;5.45;2.80;;;21.30;75.40;;;;;;9187316;19;20366;-68
2022/08/05 09:28:23;;;;;;;7.68;2.60;;;21.40;75.30;;;;;;9186856;19;20026;-68
2022/08/05 09:31:37;;;;;;;6.28;2.60;;;21.40;75.10;;;;;;9186696;19;20013;-68
2022/08/05 09:35:15;;;;;;;5.53;2.10;;;21.50;75.00;;;;;;9184180;19;20431;-67
2022/08/05 09:38:32;;;;;;;9.70;1.88;;;21.60;74.90;;;;;;9186569;19;20030;-68
2022/08/05 09:41:55;;;;;;;5.68;1.48;;;21.70;74.80;;;;;;9188356;19;20351;-67
2022/08/05 09:45:08;;;;;;;4.90;1.80;;;21.80;74.60;;;;;;9186358;19;20011;-68
2022/08/05 09:48:37;;;;;;;4.15;1.40;;;21.90;74.40;;;;;;9187843;19;20039;-69
2022/08/05 09:51:45;;;;;;;4.07;1.52;;;22.00;74.10;;;;;;9185421;19;20014;-67
2022/08/05 09:54:58;;;;;;;6.20;1.63;;;22.10;74.00;;;;;;9184925;19;20051;-67
2022/08/05 09:58:14;;;;;;;5.43;1.45;;;22.20;73.90;;;;;;9187715;19;20007;-67
2022/08/05 10:01:21;;;;;;;2.42;1.42;;;22.30;73.80;;;;;;9186985;19;20010;-69
2022/08/05 10:04:44;;;;;;;5.35;1.08;;;22.50;73.70;;;;;;9184066;19;20030;-67
2022/08/05 10:07:54;;;;;;;2.30;0.95;;;22.70;73.40;;;;;;9187796;19;20010;-67
2022/08/05 10:11:20;;;;;;;4.13;1.10;;;22.90;73.00;;;;;;9182576;19;20372;-68
2022/08/05 10:14:28;;;;;;;5.97;1.17;;;23.10;72.40;;;;;;9185905;19;20019;-68
2022/08/05 10:17:36;;;;;;;3.00;1.40;;;23.30;71.90;;;;;;9187255;19;20104;-68
2022/08/05 10:20:48;;;;;;;4.53;1.10;;;23.40;71.50;;;;;;9187167;19;20632;-68
2022/08/05 10:23:56;;;;;;;2.83;1.20;;;23.50;71.00;;;;;;9184863;19;20025;-67
2022/08/05 10:27:05;;;;;;;2.70;1.23;;;23.60;70.60;;;;;;9187038;19;20109;-67
2022/08/05 10:30:12;;;;;;;5.93;0.90;;;23.60;70.30;;;;;;9186630;19;20025;-67
2022/08/05 10:33:37;;;;;;;6.18;1.23;;;23.70;70.10;;;;;;9186046;19;20454;-67
2022/08/05 10:36:44;;;;;;;1.00;0.80;;;23.80;70.60;;;;;;9186769;19;20039;-68
2022/08/05 10:39:54;;;;;;;1.92;0.60;;;23.90;69.60;;;;;;9184832;19;20014;-67
2022/08/05 10:43:26;;;;;;;4.65;0.95;;;24.00;69.10;;;;;;9185368;19;20014;-68
2022/08/05 10:46:47;;;;;;;6.60;0.80;;;24.10;68.50;;;;;;9185546;19;20114;-68
2022/08/05 10:50:11;;;;;;;2.85;0.73;;;24.30;68.20;;;;;;9186490;19;20364;-69
2022/08/05 10:53:42;;;;;;;2.58;1.05;;;24.40;67.60;;;;;;9184866;19;20018;-67
2022/08/05 10:56:54;;;;;;;0.75;0.55;;;24.70;67.30;;;;;;9182972;19;20022;-68
2022/08/05 11:00:17;;;;;;;2.30;0.47;;;24.90;66.60;;;;;;9183672;19;20052;-68
2022/08/05 11:03:24;;;;;;;5.70;1.17;;;25.10;65.40;;;;;;9183080;19;20026;-68
2022/08/05 11:06:31;;;;;;;3.53;0.50;;;25.20;65.50;;;;;;9181590;19;20340;-67
2022/08/05 11:09:45;;;;;;;2.40;0.70;;;25.30;64.70;;;;;;9181372;19;20007;-68
2022/08/05 11:12:53;;;;;;;1.63;0.40;;;25.40;63.80;;;;;;9182520;19;20018;-69
2022/08/05 11:16:26;;;;;;;0.63;0.43;;;25.50;63.30;;;;;;9179938;19;20960;-67
2022/08/05 11:19:58;;;;;;;2.92;0.75;;;25.60;63.10;;;;;;9181413;19;20018;-69
2022/08/05 11:23:36;;;;;;;1.00;0.20;;;25.70;62.80;;;;;;9184086;19;20023;-68
2022/08/05 11:27:32;;;;;;;3.78;0.43;;;25.70;61.80;;;;;;9183930;19;20018;-68
2022/08/05 11:35:05;;;;;;;;;;;26.00;61.30;;;;;;9182700;19;20465;-68
2022/08/05 11:38:13;;;;;;;2.70;0.65;;;26.00;62.60;;;;;;9182714;19;19927;-68
2022/08/05 11:41:40;;;;;;;3.25;0.60;;;26.10;61.90;;;;;;9183362;19;20401;-68
2022/08/05 11:45:07;;;;;;;4.63;0.50;;;26.30;61.30;;;;;;9181664;19;20491;-70
2022/08/05 11:48:32;;;;;;;4.88;0.95;;;26.50;60.70;;;;;;9180164;19;20049;-68
2022/08/05 11:51:43;;;;;;;1.58;0.43;;;26.50;59.90;;;;;;9181203;19;20041;-68
2022/08/05 11:54:55;;;;;;;1.77;0.40;;;26.60;59.60;;;;;;9180265;19;20017;-68
2022/08/05 11:58:03;;;;;;;1.42;0.50;;;26.70;59.10;;;;;;9181319;19;20035;-70
2022/08/05 12:01:17;;;;;;;1.58;0.50;;;26.80;58.60;;;;;;9181049;19;20014;-69
2022/08/05 12:04:26;;;;;;;1.77;0.70;;;26.80;58.20;;;;;;9181503;19;20014;-68
2022/08/05 12:07:38;;;;;;;1.25;0.45;;;26.90;57.80;;;;;;9181255;19;20054;-68
2022/08/05 12:11:09;;;;;;;1.42;0.40;;;26.90;57.10;;;;;;9176804;19;20445;-69
2022/08/05 12:14:38;;;;;;;1.27;0.50;;;26.90;56.80;;;;;;9182724;19;20011;-68
2022/08/05 12:17:48;;;;;;;2.60;0.45;;;26.90;56.90;;;;;;9181671;19;20089;-68
2022/08/05 12:21:23;;;;;;;4.03;0.30;;;27.00;56.50;;;;;;9182945;19;20018;-68
2022/08/05 12:24:35;;;;;;;0.60;0.43;;;27.00;55.80;;;;;;9183000;19;20039;-68
2022/08/05 12:27:46;;;;;;;1.35;0.30;;;27.00;55.90;;;;;;9180270;19;20472;-68
2022/08/05 12:30:59;;;;;;;7.28;0.47;;;27.00;55.70;;;;;;9179759;19;20018;-68
2022/08/05 12:34:18;;;;;;;1.27;0.40;;;27.00;55.10;;;;;;9182281;19;20025;-69
2022/08/05 12:37:28;;;;;;;1.52;0.40;;;27.10;54.90;;;;;;9180231;19;20014;-69
2022/08/05 12:40:34;;;;;;;0.73;0.30;;;27.10;54.30;;;;;;9180558;19;20022;-67
2022/08/05 12:43:55;;;;;;;1.60;0.52;;;27.20;54.40;;;;;;9178436;19;20023;-68
2022/08/05 12:47:03;;;;;;;2.33;0.50;;;27.20;53.90;;;;;;9178917;19;20601;-67
2022/08/05 12:50:17;;;;;;;4.18;0.57;;;27.20;53.90;;;;;;9181524;19;20023;-68
2022/08/05 12:53:31;;;;;;;1.08;0.45;;;27.20;53.70;;;;;;9179214;19;20018;-69
2022/08/05 12:56:43;;;;;;;;;;;27.20;53.10;;;;;;9180278;19;20044;-68
2022/08/05 12:59:52;;;;;;;1.30;0.32;;;27.20;54.20;;;;;;9179966;19;19923;-68
2022/08/05 13:03:23;;;;;;;1.45;0.35;;;27.20;53.60;;;;;;9178548;19;20018;-69
2022/08/05 13:06:41;;;;;;;2.08;0.40;;;27.10;53.10;;;;;;9176380;19;20450;-68
2022/08/05 13:10:16;;;;;;;0.80;0.20;;;26.90;52.90;;;;;;9176535;19;20030;-68
2022/08/05 13:13:28;;;;;;;1.63;0.20;;;26.80;52.50;;;;;;9180756;19;20018;-68
2022/08/05 13:16:56;;;;;;;2.95;0.60;;;26.60;52.90;;;;;;9178032;19;20015;-68
2022/08/05 13:20:05;;;;;;;1.92;0.38;;;26.50;52.80;;;;;;9178536;19;20018;-69
2022/08/05 13:23:13;;;;;;;2.35;0.50;;;26.50;52.80;;;;;;9179640;19;20023;-67
2022/08/05 13:26:26;;;;;;;1.52;0.32;;;26.40;52.60;;;;;;9177654;19;20048;-68
2022/08/05 13:29:34;;;;;;;5.05;0.30;;;26.40;52.30;;;;;;9178030;19;20675;-68
2022/08/05 13:32:47;;;;;;;2.08;0.30;;;26.40;52.50;;;;;;9178533;19;20030;-69
2022/08/05 13:35:57;;;;;;;4.85;0.45;;;26.30;52.30;;;;;;9178809;19;20018;-67
2022/08/05 13:39:12;;;;;;;3.08;0.60;;;26.30;51.90;;;;;;9183645;19;20026;-70
2022/08/05 13:42:45;;;;;;;1.30;0.40;;;26.20;51.90;;;;;;9189409;19;20044;-70
2022/08/05 13:45:52;;;;;;;1.30;0.30;;;26.20;51.60;;;;;;9188561;19;20014;-67
2022/08/05 13:48:59;;;;;;;3.33;0.70;;;26.10;51.50;;;;;;9186725;19;20018;-70
2022/08/05 13:52:14;;;;;;;1.75;0.40;;;26.10;51.40;;;;;;9188692;19;20023;-68
2022/08/05 13:55:20;;;;;;;5.13;0.38;;;26.00;51.10;;;;;;9185780;19;20006;-68
2022/08/05 13:59:00;;;;;;;0.98;0.40;;;25.90;51.10;;;;;;9185882;19;20053;-67
2022/08/05 14:02:30;;;;;;;1.13;0.28;;;25.90;51.00;;;;;;9187619;19;20074;-68
2022/08/05 14:05:39;;;;;;;1.83;0.40;;;25.80;50.90;;;;;;9183112;19;20011;-69
2022/08/05 14:09:04;;;;;;;0.77;0.30;;;25.70;51.00;;;;;;9186140;19;20383;-69
2022/08/05 14:12:14;;;;;;;2.30;0.60;;;25.70;51.00;;;;;;9185206;19;20014;-69
2022/08/05 14:15:32;;;;;;;5.03;0.30;;;25.70;50.80;;;;;;9186618;19;20022;-69
2022/08/05 14:19:00;;;;;;;1.15;0.60;;;25.70;50.40;;;;;;9186600;19;20018;-68
2022/08/05 14:22:09;;;;;;;0.73;0.22;;;25.70;50.50;;;;;;9186006;19;20023;-69
2022/08/05 14:25:16;;;;;;;2.97;0.60;;;25.70;50.30;;;;;;9184686;19;20022;-69
2022/08/05 14:28:29;;;;;;;0.85;0.40;;;25.70;50.20;;;;;;9185681;19;20028;-69
2022/08/05 14:31:41;;;;;;;2.10;0.60;;;25.60;49.80;;;;;;9185383;19;20496;-69
2022/08/05 14:35:16;;;;;;;0.63;0.20;;;25.50;49.70;;;;;;9185960;19;20082;-68
2022/08/05 14:38:26;;;;;;;0.57;0.30;;;25.50;49.80;;;;;;9184216;19;20019;-67
2022/08/05 14:41:43;;;;;;;0.75;0.47;;;25.50;49.70;;;;;;9184260;19;20019;-68
2022/08/05 14:45:22;;;;;;;7.55;0.50;;;25.50;49.90;;;;;;9184973;19;20035;-68
2022/08/05 14:48:40;;;;;;;1.77;0.50;;;25.40;50.00;;;;;;9182730;19;20014;-68
2022/08/05 14:51:49;;;;;;;3.70;1.00;;;25.40;49.80;;;;;;9181831;19;20352;-68
2022/08/05 14:54:54;;;;;;;1.33;0.52;;;25.30;50.00;;;;;;9183647;19;20011;-69
2022/08/05 14:58:13;;;;;;;2.28;0.40;;;25.30;49.80;;;;;;9183176;19;20014;-68
2022/08/05 15:01:21;;;;;;;0.63;0.30;;;25.30;49.80;;;;;;9185779;19;20015;-67
2022/08/05 15:04:48;;;;;;;1.77;0.63;;;25.30;49.80;;;;;;9183871;19;20026;-68
2022/08/05 15:07:54;;;;;;;1.52;0.32;;;25.30;49.60;;;;;;9184814;19;20017;-68
2022/08/05 15:11:23;;;;;;;0.73;0.35;;;25.30;49.70;;;;;;9181289;19;20380;-68
2022/08/05 15:14:51;;;;;;;0.80;0.28;;;25.30;49.60;;;;;;9184728;19;20036;-68
2022/08/05 15:18:08;;;;;;;1.10;0.40;;;25.30;49.60;;;;;;9180333;19;20344;-67
2022/08/05 15:21:21;;;;;;;3.27;0.30;;;25.30;49.50;;;;;;9182141;19;20007;-68
2022/08/05 15:24:28;;;;;;;1.50;0.40;;;25.20;49.50;;;;;;9183201;19;20018;-68
2022/08/05 15:27:33;;;;;;;1.02;0.50;;;25.20;49.50;;;;;;9182389;19;20021;-68
2022/08/05 15:30:40;;;;;;;4.47;0.75;;;25.20;49.60;;;;;;9182521;19;20041;-68
2022/08/05 15:33:48;;;;;;;2.25;0.40;;;25.20;49.70;;;;;;9179876;19;20079;-68
2022/08/05 15:37:16;;;;;;;1.20;0.40;;;25.20;49.60;;;;;;9180350;19;20018;-68
2022/08/05 15:40:43;;;;;;;1.15;0.30;;;25.10;49.50;;;;;;9181456;19;20022;-68
2022/08/05 15:44:13;;;;;;;1.77;0.68;;;25.10;49.60;;;;;;9181035;19;20014;-68
2022/08/05 15:47:24;;;;;;;4.40;0.70;;;25.00;49.50;;;;;;9181906;19;20014;-68
2022/08/05 15:50:29;;;;;;;0.60;0.10;;;25.00;49.50;;;;;;9183747;19;20464;-68
2022/08/05 15:53:41;;;;;;;1.70;0.40;;;24.90;49.60;;;;;;9181831;19;20022;-69
2022/08/05 15:56:54;;;;;;;2.78;0.45;;;24.80;49.40;;;;;;9180412;19;20007;-67
2022/08/05 16:00:17;;;;;;;;;;;;;;;;;;;;;
2022/08/05 16:03:37;;;;;;;5.72;0.73;;;24.80;49.60;;;;;;9175573;19;20019;-68
2022/08/05 16:06:45;;;;;;;2.15;0.60;;;24.70;49.70;;;;;;9177047;19;20015;-67
2022/08/05 16:10:00;;;;;;;1.23;0.20;;;24.70;49.70;;;;;;9172384;19;20022;-69
2022/08/05 16:13:13;;;;;;;3.30;0.88;;;24.60;49.70;;;;;;9176509;19;20019;-68
2022/08/05 16:16:31;;;;;;;3.65;0.40;;;24.50;49.80;;;;;;9179629;19;20048;-69
2022/08/05 16:19:36;;;;;;;3.60;0.75;;;24.50;50.00;;;;;;9179878;19;20095;-69
2022/08/05 16:23:05;;;;;;;2.03;0.35;;;24.50;50.00;;;;;;9180821;19;20029;-68
2022/08/05 16:26:22;;;;;;;2.70;0.57;;;24.50;50.10;;;;;;9181716;19;20007;-68
2022/08/05 16:29:31;;;;;;;3.80;0.57;;;24.40;50.00;;;;;;9178259;19;20019;-69
2022/08/05 16:32:45;;;;;;;3.25;0.50;;;24.30;50.10;;;;;;9182290;19;20025;-69
2022/08/05 16:35:50;;;;;;;1.98;0.50;;;24.30;50.10;;;;;;9179671;19;20418;-68
2022/08/05 16:38:57;;;;;;;1.45;0.45;;;24.20;50.20;;;;;;9179496;19;20006;-69
2022/08/05 16:42:09;;;;;;;4.97;0.60;;;24.10;50.80;;;;;;9181329;19;20010;-68
2022/08/05 16:45:37;;;;;;;1.63;0.60;;;24.00;50.10;;;;;;9179760;19;20021;-67
2022/08/05 16:49:05;;;;;;;4.53;0.70;;;23.90;50.20;;;;;;9181700;19;20112;-69
2022/08/05 16:52:13;;;;;;;3.55;0.80;;;23.90;50.40;;;;;;9178716;19;20026;-68
2022/08/05 16:55:21;;;;;;;3.63;0.63;;;23.80;50.20;;;;;;9178965;19;20017;-69
2022/08/05 16:58:31;;;;;;;3.72;0.50;;;23.80;50.30;;;;;;9176588;19;20085;-67